Time;durP1;ratioP1;P1;durP2;ratioP2;P2;SDS_P1;SDS_P2;PMS_P1;PMS_P2;Temp;Humidity;BMP_temperature;BMP_pressure;BME280_temperature;BME280_humidity;BME280_pressure;Samples;Min_cycle;Max_cycle;Signal;HPM_P1;HPM_P2
2023/09/09 00:02:13;;;;;;;12.32;10.93;;;21.70;99.90;;;;;;5090628;28;20037;-69
2023/09/09 00:04:40;;;;;;;16.02;11.30;;;21.60;99.90;;;;;;5057547;28;20120;-70
2023/09/09 00:07:06;;;;;;;13.85;11.75;;;21.60;99.90;;;;;;5057233;28;20501;-69
2023/09/09 00:09:32;;;;;;;15.95;11.70;;;21.60;99.90;;;;;;5057300;28;20040;-70
2023/09/09 00:11:58;;;;;;;13.82;11.40;;;21.50;99.90;;;;;;5058006;28;20045;-70
2023/09/09 00:14:25;;;;;;;14.60;12.45;;;21.50;99.90;;;;;;5057470;28;20052;-70
2023/09/09 00:16:51;;;;;;;15.23;12.60;;;21.50;99.90;;;;;;5040949;28;20132;-69
2023/09/09 00:19:21;;;;;;;14.15;12.55;;;21.50;99.90;;;;;;5090949;28;20084;-69
2023/09/09 00:21:46;;;;;;;14.15;12.55;;;21.50;99.90;;;;;;5058340;28;20086;-70
2023/09/09 00:24:12;;;;;;;16.17;13.00;;;21.50;99.90;;;;;;5056909;28;20060;-70
2023/09/09 00:26:38;;;;;;;14.20;12.50;;;21.50;99.90;;;;;;5057272;28;20048;-68
2023/09/09 00:29:04;;;;;;;14.68;12.77;;;21.50;99.90;;;;;;5056756;28;20041;-69
2023/09/09 00:31:29;;;;;;;15.43;13.82;;;21.40;99.90;;;;;;5057152;28;20120;-69
2023/09/09 00:33:55;;;;;;;13.48;12.07;;;21.40;99.90;;;;;;5057642;28;20048;-69
2023/09/09 00:36:21;;;;;;;15.00;12.80;;;21.40;99.90;;;;;;5055359;28;20128;-69
2023/09/09 00:38:46;;;;;;;14.00;12.52;;;21.40;99.90;;;;;;5058028;28;20529;-69
2023/09/09 00:41:17;;;;;;;14.75;13.32;;;21.40;99.90;;;;;;5056952;28;20045;-70
2023/09/09 00:43:44;;;;;;;15.90;13.85;;;21.40;99.90;;;;;;5057230;28;20036;-70
2023/09/09 00:46:11;;;;;;;18.02;13.20;;;21.30;99.90;;;;;;5073049;28;20526;-69
2023/09/09 00:48:37;;;;;;;15.77;13.68;;;21.30;99.90;;;;;;5058272;28;20060;-69
2023/09/09 00:51:05;;;;;;;14.85;13.35;;;21.30;99.90;;;;;;5056561;28;20116;-70
2023/09/09 00:53:31;;;;;;;18.08;13.85;;;21.20;99.90;;;;;;5058219;28;20060;-70
2023/09/09 00:56:00;;;;;;;15.40;13.63;;;21.20;99.90;;;;;;5053048;28;20080;-78
2023/09/09 00:58:29;;;;;;;18.02;13.68;;;21.20;99.90;;;;;;5055034;28;20045;-69
2023/09/09 01:00:54;;;;;;;15.32;13.80;;;21.10;99.90;;;;;;5054974;28;20045;-69
2023/09/09 01:03:20;;;;;;;15.75;13.55;;;21.10;99.90;;;;;;5054492;28;20044;-69
2023/09/09 01:05:46;;;;;;;15.07;13.50;;;21.10;99.90;;;;;;5054880;28;20063;-70
2023/09/09 01:08:12;;;;;;;16.60;13.60;;;21.10;99.90;;;;;;5053170;28;20479;-69
2023/09/09 01:10:37;;;;;;;18.35;13.18;;;21.00;99.90;;;;;;5054932;28;20062;-69
2023/09/09 01:13:03;;;;;;;17.67;13.43;;;21.10;99.90;;;;;;5036528;28;20049;-70
2023/09/09 01:15:31;;;;;;;16.85;12.95;;;21.00;99.90;;;;;;5053619;28;20048;-70
2023/09/09 01:17:56;;;;;;;13.93;12.45;;;21.00;99.90;;;;;;5053527;28;20045;-69
2023/09/09 01:20:25;;;;;;;13.80;12.50;;;21.00;99.90;;;;;;5054084;28;20102;-69
2023/09/09 01:22:51;;;;;;;14.63;12.77;;;21.00;99.90;;;;;;5053246;28;20107;-69
2023/09/09 01:25:17;;;;;;;16.02;12.63;;;21.00;99.90;;;;;;5053923;28;20044;-69
2023/09/09 01:27:43;;;;;;;16.77;13.98;;;20.90;99.90;;;;;;5054576;28;20048;-70
2023/09/09 01:30:11;;;;;;;14.50;12.77;;;20.90;99.90;;;;;;5052522;28;20128;-70
2023/09/09 01:32:37;;;;;;;14.50;12.65;;;20.90;99.90;;;;;;5054333;28;20048;-69
2023/09/09 01:35:04;;;;;;;14.43;13.00;;;20.90;99.90;;;;;;5053606;28;20053;-74
2023/09/09 01:37:30;;;;;;;14.30;12.68;;;20.90;99.90;;;;;;5054331;28;20098;-69
2023/09/09 01:39:56;;;;;;;15.55;13.15;;;20.80;99.90;;;;;;5053040;28;20482;-70
2023/09/09 01:42:22;;;;;;;16.25;13.23;;;20.70;99.90;;;;;;5052514;28;20576;-69
2023/09/09 01:44:47;;;;;;;15.60;13.65;;;20.80;99.90;;;;;;5053826;28;20106;-69
2023/09/09 01:47:13;;;;;;;16.20;13.35;;;20.80;99.90;;;;;;5052521;28;20527;-69
2023/09/09 01:49:41;;;;;;;16.00;13.23;;;20.70;99.90;;;;;;5053961;28;20534;-69
2023/09/09 01:52:07;;;;;;;15.68;13.00;;;20.70;99.90;;;;;;5053480;28;20103;-75
2023/09/09 01:54:33;;;;;;;18.80;14.05;;;20.70;99.90;;;;;;5052906;28;20049;-69
2023/09/09 01:56:58;;;;;;;16.52;14.85;;;20.70;99.90;;;;;;5053008;28;20045;-70
2023/09/09 01:59:24;;;;;;;17.02;13.73;;;20.70;99.90;;;;;;5053300;28;20037;-70
2023/09/09 02:01:50;;;;;;;18.42;15.52;;;20.60;99.90;;;;;;5053677;28;20077;-69
2023/09/09 02:04:15;;;;;;;17.98;15.57;;;20.60;99.90;;;;;;5038205;28;20049;-68
2023/09/09 02:06:43;;;;;;;17.23;15.43;;;20.60;99.90;;;;;;5051439;28;20040;-70
2023/09/09 02:09:09;;;;;;;17.88;15.63;;;20.60;99.90;;;;;;5053136;28;20057;-70
2023/09/09 02:11:35;;;;;;;17.02;15.32;;;20.60;99.90;;;;;;5035853;28;20033;-70
2023/09/09 02:14:00;;;;;;;17.88;15.80;;;20.60;99.90;;;;;;5053731;28;20049;-70
2023/09/09 02:16:26;;;;;;;18.27;15.40;;;20.50;99.90;;;;;;5052187;28;20532;-70
2023/09/09 02:18:52;;;;;;;16.58;14.70;;;20.60;99.90;;;;;;5052051;28;20511;-70
2023/09/09 02:21:17;;;;;;;17.70;15.02;;;20.60;99.90;;;;;;5052838;28;20045;-70
2023/09/09 02:23:43;;;;;;;15.93;14.32;;;20.60;99.90;;;;;;5053478;28;20178;-70
2023/09/09 02:26:09;;;;;;;17.55;15.10;;;20.60;99.90;;;;;;5052952;28;20049;-77
2023/09/09 02:28:35;;;;;;;18.17;14.43;;;20.60;99.90;;;;;;5052046;28;20144;-69
2023/09/09 02:31:00;;;;;;;18.42;15.20;;;20.50;99.90;;;;;;5053253;28;20047;-69
2023/09/09 02:33:26;;;;;;;16.98;15.15;;;20.50;99.90;;;;;;5051432;28;20088;-69
2023/09/09 02:35:52;;;;;;;15.95;14.35;;;20.50;99.90;;;;;;5053145;28;20052;-69
2023/09/09 02:38:18;;;;;;;17.08;15.27;;;20.50;99.90;;;;;;5052485;28;20439;-70
2023/09/09 02:40:43;;;;;;;16.67;15.02;;;20.40;99.90;;;;;;5053024;28;20088;-70
2023/09/09 02:43:10;;;;;;;17.45;14.82;;;20.40;99.90;;;;;;5051824;28;20128;-70
2023/09/09 02:45:38;;;;;;;16.05;14.35;;;20.40;99.90;;;;;;5052414;28;20064;-70
2023/09/09 02:48:04;;;;;;;16.30;14.55;;;20.40;99.90;;;;;;5051734;28;20064;-71
2023/09/09 02:50:30;;;;;;;16.92;14.75;;;20.40;99.90;;;;;;5051351;28;20076;-69
2023/09/09 02:52:56;;;;;;;18.63;15.25;;;20.40;99.90;;;;;;5052961;28;20087;-69
2023/09/09 02:55:21;;;;;;;16.45;14.68;;;20.30;99.90;;;;;;5052029;28;20138;-69
2023/09/09 02:57:50;;;;;;;17.25;14.50;;;20.30;99.90;;;;;;5052609;28;20115;-69
2023/09/09 03:00:16;;;;;;;17.42;15.52;;;20.30;99.90;;;;;;5051439;28;20429;-70
2023/09/09 03:02:42;;;;;;;18.42;14.93;;;20.30;99.90;;;;;;5052573;28;20135;-69
2023/09/09 03:05:09;;;;;;;17.15;15.45;;;20.30;99.90;;;;;;5051476;28;20072;-70
2023/09/09 03:07:34;;;;;;;16.85;15.10;;;20.30;99.90;;;;;;5052139;28;20446;-70
2023/09/09 03:10:00;;;;;;;17.60;15.15;;;20.30;99.90;;;;;;5045497;28;20102;-70
2023/09/09 03:12:27;;;;;;;17.67;15.68;;;20.30;99.90;;;;;;5045491;28;20068;-70
2023/09/09 03:14:53;;;;;;;20.33;16.52;;;20.30;99.90;;;;;;5051157;28;20041;-69
2023/09/09 03:17:18;;;;;;;18.00;15.55;;;20.20;99.90;;;;;;5050630;28;20066;-69
2023/09/09 03:19:44;;;;;;;18.33;15.88;;;20.20;99.90;;;;;;5052127;28;20090;-70
2023/09/09 03:22:10;;;;;;;18.17;16.33;;;20.20;99.90;;;;;;5051226;28;20045;-69
2023/09/09 03:24:36;;;;;;;18.80;15.98;;;20.20;99.90;;;;;;5051935;28;20064;-69
2023/09/09 03:27:02;;;;;;;19.00;15.77;;;20.20;99.90;;;;;;5051105;28;20060;-69
2023/09/09 03:29:27;;;;;;;17.55;15.85;;;20.20;99.90;;;;;;5051935;28;20037;-69
2023/09/09 03:31:53;;;;;;;17.88;16.08;;;20.10;99.90;;;;;;5051002;28;20490;-68
2023/09/09 03:34:19;;;;;;;17.27;15.57;;;20.10;99.90;;;;;;5051854;28;20049;-71
2023/09/09 03:36:44;;;;;;;18.05;16.25;;;20.20;99.90;;;;;;5051230;28;20394;-69
2023/09/09 03:39:10;;;;;;;17.52;15.68;;;20.10;99.90;;;;;;5052305;28;20044;-70
2023/09/09 03:41:38;;;;;;;20.73;16.50;;;20.10;99.90;;;;;;5051649;28;20037;-69
2023/09/09 03:44:04;;;;;;;19.73;16.63;;;20.10;99.90;;;;;;5051194;28;20053;-69
2023/09/09 03:46:30;;;;;;;18.75;16.95;;;20.10;99.90;;;;;;5051999;28;20405;-69
2023/09/09 03:48:56;;;;;;;18.25;16.35;;;20.00;99.90;;;;;;5051929;28;20087;-69
2023/09/09 03:51:21;;;;;;;18.33;16.35;;;20.00;99.90;;;;;;5050567;28;20029;-70
2023/09/09 03:53:47;;;;;;;18.50;16.50;;;20.00;99.90;;;;;;5052240;28;20119;-69
2023/09/09 03:56:13;;;;;;;18.20;16.27;;;20.00;99.90;;;;;;5051897;28;20087;-70
2023/09/09 03:58:38;;;;;;;19.45;17.38;;;20.00;99.90;;;;;;5050537;28;20570;-69
2023/09/09 04:01:06;;;;;;;18.75;16.42;;;19.90;99.90;;;;;;5084198;28;20037;-70
2023/09/09 04:03:35;;;;;;;18.90;16.98;;;19.90;99.90;;;;;;5051624;28;20056;-69
2023/09/09 04:06:06;;;;;;;20.92;17.83;;;19.90;99.90;;;;;;5051570;28;20045;-69
2023/09/09 04:08:33;;;;;;;20.42;18.23;;;19.90;99.90;;;;;;5040704;28;20040;-69
2023/09/09 04:10:59;;;;;;;20.73;18.45;;;19.90;99.90;;;;;;5051912;28;20041;-68
2023/09/09 04:13:25;;;;;;;20.33;18.23;;;19.90;99.90;;;;;;5051497;28;20045;-69
2023/09/09 04:15:55;;;;;;;24.58;17.63;;;19.90;99.90;;;;;;5051860;28;20102;-70
2023/09/09 04:18:20;;;;;;;22.20;19.00;;;19.90;99.90;;;;;;5051610;28;20048;-70
2023/09/09 04:20:46;;;;;;;21.30;18.95;;;19.90;99.90;;;;;;5050062;28;20045;-70
2023/09/09 04:23:12;;;;;;;23.17;18.55;;;19.90;99.90;;;;;;5050581;28;20067;-70
2023/09/09 04:25:38;;;;;;;20.75;18.10;;;19.90;99.90;;;;;;5050066;28;20045;-70
2023/09/09 04:28:05;;;;;;;20.13;18.13;;;19.90;99.90;;;;;;5067489;28;20056;-69
2023/09/09 04:30:30;;;;;;;21.35;18.75;;;19.90;99.90;;;;;;5053133;28;20045;-69
2023/09/09 04:32:56;;;;;;;24.05;20.50;;;19.90;99.90;;;;;;5055301;28;20052;-76
2023/09/09 04:35:22;;;;;;;25.60;20.30;;;19.90;99.90;;;;;;5055366;28;20041;-69
2023/09/09 04:37:50;;;;;;;23.65;19.90;;;19.90;99.90;;;;;;5054974;28;20047;-69
2023/09/09 04:40:16;;;;;;;23.42;19.77;;;19.90;99.90;;;;;;5055260;28;20123;-70
2023/09/09 04:42:42;;;;;;;24.65;20.20;;;19.90;99.90;;;;;;5053717;28;20120;-70
2023/09/09 04:45:09;;;;;;;23.23;20.33;;;19.90;99.90;;;;;;5055073;28;20060;-70
2023/09/09 04:47:37;;;;;;;23.48;20.98;;;19.90;99.90;;;;;;5087000;28;20049;-69
2023/09/09 04:50:03;;;;;;;22.77;19.77;;;19.90;99.90;;;;;;5055093;28;20045;-69
2023/09/09 04:52:29;;;;;;;22.80;19.42;;;19.90;99.90;;;;;;5054784;28;20048;-70
2023/09/09 04:54:55;;;;;;;22.50;20.15;;;20.00;99.90;;;;;;5055145;28;20104;-69
2023/09/09 04:57:20;;;;;;;24.50;19.80;;;19.90;99.90;;;;;;5053865;28;20496;-69
2023/09/09 04:59:46;;;;;;;23.27;20.80;;;19.90;99.90;;;;;;5054467;28;20052;-70
2023/09/09 05:02:13;;;;;;;23.50;20.15;;;19.90;99.90;;;;;;5053487;28;20044;-70
2023/09/09 05:04:39;;;;;;;23.70;20.40;;;19.90;99.90;;;;;;5054460;28;20052;-70
2023/09/09 05:07:05;;;;;;;23.63;20.85;;;19.90;99.90;;;;;;5055204;28;20049;-70
2023/09/09 05:09:31;;;;;;;23.20;20.75;;;20.00;99.90;;;;;;5053149;28;20055;-70
2023/09/09 05:11:57;;;;;;;21.02;18.73;;;19.90;99.90;;;;;;5054706;28;20401;-70
2023/09/09 05:14:22;;;;;;;22.33;18.55;;;19.90;99.90;;;;;;5053650;28;20040;-69
2023/09/09 05:16:48;;;;;;;23.83;19.25;;;19.90;99.90;;;;;;5054291;28;20142;-69
2023/09/09 05:19:14;;;;;;;23.42;20.70;;;19.90;99.90;;;;;;5053471;28;20041;-69
2023/09/09 05:21:39;;;;;;;22.55;19.98;;;19.90;99.90;;;;;;5053908;28;20041;-70
2023/09/09 05:24:05;;;;;;;23.80;20.45;;;20.00;99.90;;;;;;5054591;28;20479;-70
2023/09/09 05:26:31;;;;;;;21.88;19.45;;;20.00;99.90;;;;;;5053109;28;20044;-70
2023/09/09 05:28:57;;;;;;;21.77;19.42;;;20.00;99.90;;;;;;5054319;28;20073;-70
2023/09/09 05:31:23;;;;;;;22.88;19.38;;;20.00;99.90;;;;;;5054146;28;20091;-70
2023/09/09 05:33:48;;;;;;;22.33;19.38;;;20.00;99.90;;;;;;5053919;28;20049;-70
2023/09/09 05:36:14;;;;;;;22.48;18.92;;;20.10;99.90;;;;;;5036746;28;20517;-69
2023/09/09 05:38:40;;;;;;;21.20;18.75;;;20.10;99.90;;;;;;5053750;28;20040;-70
2023/09/09 05:41:06;;;;;;;24.33;19.60;;;20.20;99.90;;;;;;5053774;28;20072;-69
2023/09/09 05:43:31;;;;;;;24.85;19.38;;;20.30;99.90;;;;;;5053007;28;20117;-70
2023/09/09 05:45:59;;;;;;;21.50;18.83;;;20.60;99.90;;;;;;5053576;28;20443;-69
2023/09/09 05:48:25;;;;;;;20.13;17.58;;;21.00;99.90;;;;;;5036390;28;20056;-69
2023/09/09 05:50:51;;;;;;;19.75;16.33;;;21.50;99.90;;;;;;5053447;28;20056;-69
2023/09/09 05:53:16;;;;;;;19.35;16.63;;;21.90;99.90;;;;;;5020021;28;20044;-70
2023/09/09 05:55:42;;;;;;;24.08;16.80;;;22.20;99.90;;;;;;5035846;28;20045;-70
2023/09/09 05:58:08;;;;;;;22.58;16.23;;;22.40;99.90;;;;;;5052899;28;20126;-71
2023/09/09 06:00:33;;;;;;;18.60;16.27;;;22.40;99.90;;;;;;5052801;28;20037;-70
2023/09/09 06:02:59;;;;;;;20.83;16.63;;;22.30;99.90;;;;;;5053430;28;20083;-70
2023/09/09 06:05:25;;;;;;;19.08;16.23;;;22.40;99.90;;;;;;5053864;28;20053;-70
2023/09/09 06:07:51;;;;;;;20.15;16.25;;;22.40;99.90;;;;;;5019375;28;20122;-70
2023/09/09 06:10:17;;;;;;;18.33;15.65;;;22.40;99.90;;;;;;5036003;28;20444;-70
2023/09/09 06:12:42;;;;;;;19.13;15.88;;;22.30;99.90;;;;;;5053281;28;20045;-70
2023/09/09 06:15:09;;;;;;;18.10;16.13;;;22.20;99.90;;;;;;5052668;28;20049;-70
2023/09/09 06:17:36;;;;;;;18.75;15.55;;;22.20;99.90;;;;;;5036207;28;20407;-70
2023/09/09 06:20:01;;;;;;;19.48;16.35;;;22.10;99.90;;;;;;5052058;28;20487;-70
2023/09/09 06:22:27;;;;;;;20.50;16.33;;;22.10;99.90;;;;;;5052226;28;20099;-69
2023/09/09 06:24:53;;;;;;;17.90;16.05;;;22.00;99.90;;;;;;5051804;28;20037;-70
2023/09/09 06:27:19;;;;;;;18.15;16.35;;;22.10;99.90;;;;;;5052631;28;20402;-70
2023/09/09 06:29:44;;;;;;;20.27;17.27;;;22.00;99.90;;;;;;5052752;28;20041;-69
2023/09/09 06:32:10;;;;;;;19.05;16.30;;;22.10;99.90;;;;;;5052100;28;20055;-69
2023/09/09 06:34:36;;;;;;;21.38;18.88;;;22.10;99.90;;;;;;5053289;28;20450;-69
2023/09/09 06:37:02;;;;;;;27.23;18.60;;;22.10;99.90;;;;;;5035120;28;20114;-70
2023/09/09 06:39:27;;;;;;;21.05;18.65;;;22.10;99.90;;;;;;5053154;28;20048;-69
2023/09/09 06:41:53;;;;;;;21.85;19.48;;;22.20;99.90;;;;;;5051084;28;20456;-69
2023/09/09 06:44:19;;;;;;;21.13;19.02;;;22.30;99.90;;;;;;5051777;28;20051;-69
2023/09/09 06:46:44;;;;;;;21.33;19.13;;;22.40;99.90;;;;;;5035096;28;20436;-70
2023/09/09 06:49:11;;;;;;;21.90;19.52;;;22.40;99.90;;;;;;5053168;28;20047;-70
2023/09/09 06:51:37;;;;;;;21.90;19.02;;;22.40;99.90;;;;;;5052837;28;20068;-70
2023/09/09 06:54:02;;;;;;;27.00;20.75;;;22.40;99.90;;;;;;5050699;28;20551;-70
2023/09/09 06:56:28;;;;;;;22.25;19.92;;;22.40;99.90;;;;;;5052936;28;20112;-70
2023/09/09 06:58:54;;;;;;;23.17;20.08;;;22.40;99.90;;;;;;5051313;28;20052;-69
2023/09/09 07:01:19;;;;;;;27.63;21.98;;;22.50;99.90;;;;;;5051376;28;20044;-70
2023/09/09 07:03:45;;;;;;;24.33;21.73;;;22.50;99.90;;;;;;5052173;28;20056;-72
2023/09/09 07:06:11;;;;;;;24.02;21.45;;;22.50;99.90;;;;;;5035082;28;20047;-70
2023/09/09 07:08:40;;;;;;;24.05;21.55;;;22.50;99.90;;;;;;5052851;28;20079;-69
2023/09/09 07:11:06;;;;;;;30.45;23.13;;;22.50;99.90;;;;;;5051126;28;20347;-70
2023/09/09 07:13:31;;;;;;;25.25;22.52;;;22.60;99.90;;;;;;5044531;28;20107;-70
2023/09/09 07:15:57;;;;;;;26.20;23.35;;;23.00;99.90;;;;;;5045169;28;20510;-72
2023/09/09 07:18:23;;;;;;;25.42;22.75;;;23.50;99.90;;;;;;5052460;28;20040;-70
2023/09/09 07:20:49;;;;;;;24.08;21.42;;;23.80;99.90;;;;;;5051157;28;20088;-70
2023/09/09 07:23:16;;;;;;;24.85;21.85;;;24.20;99.90;;;;;;5051356;28;20049;-70
2023/09/09 07:25:47;;;;;;;25.33;22.73;;;24.30;99.90;;;;;;5051565;28;20048;-70
2023/09/09 07:28:13;;;;;;;28.15;22.08;;;24.40;99.90;;;;;;5052133;28;20045;-70
2023/09/09 07:30:38;;;;;;;24.42;21.92;;;24.40;99.90;;;;;;5034545;28;20044;-69
2023/09/09 07:33:04;;;;;;;24.25;21.65;;;24.40;99.90;;;;;;5084473;28;20067;-70
2023/09/09 07:35:30;;;;;;;24.92;22.33;;;24.30;99.90;;;;;;5051328;28;20487;-69
2023/09/09 07:37:56;;;;;;;24.83;22.13;;;24.30;99.90;;;;;;5051876;28;20438;-70
2023/09/09 07:40:22;;;;;;;24.88;21.40;;;24.30;99.90;;;;;;5051910;28;20041;-69
2023/09/09 07:42:50;;;;;;;24.73;22.08;;;24.40;99.90;;;;;;5017960;28;20041;-70
2023/09/09 07:45:16;;;;;;;24.55;22.05;;;24.60;99.90;;;;;;5051968;28;20148;-70
2023/09/09 07:47:42;;;;;;;24.45;21.95;;;25.20;99.90;;;;;;5050726;28;20128;-69
2023/09/09 07:50:08;;;;;;;25.48;22.85;;;26.00;99.90;;;;;;5051541;28;20538;-69
2023/09/09 07:52:34;;;;;;;24.75;21.55;;;26.80;99.90;;;;;;5050988;28;20045;-69
2023/09/09 07:55:00;;;;;;;22.50;20.27;;;27.60;99.90;;;;;;5051660;28;20102;-70
2023/09/09 07:57:25;;;;;;;24.00;20.98;;;28.20;99.90;;;;;;5050849;28;20045;-70
2023/09/09 07:59:51;;;;;;;22.48;20.15;;;28.90;99.90;;;;;;5051731;28;20478;-69
2023/09/09 08:02:17;;;;;;;21.80;19.48;;;29.50;99.90;;;;;;5050792;28;20045;-69
2023/09/09 08:04:43;;;;;;;21.33;19.10;;;30.10;99.90;;;;;;5052600;28;20104;-69
2023/09/09 08:07:08;;;;;;;21.40;19.10;;;30.70;99.90;;;;;;5054391;28;20056;-69
2023/09/09 08:09:34;;;;;;;20.50;18.40;;;31.30;99.90;;;;;;5037939;28;20132;-70
2023/09/09 08:12:00;;;;;;;22.13;18.50;;;31.70;99.90;;;;;;5055499;28;20059;-69
2023/09/09 08:14:26;;;;;;;21.20;19.00;;;32.20;99.80;;;;;;5055688;28;20083;-70
2023/09/09 08:16:51;;;;;;;19.25;17.25;;;32.60;99.30;;;;;;5054750;28;20041;-70
2023/09/09 08:19:17;;;;;;;20.77;18.77;;;32.90;98.80;;;;;;5021345;28;20068;-70
2023/09/09 08:21:43;;;;;;;23.42;18.70;;;33.20;98.20;;;;;;5055408;28;20447;-70
2023/09/09 08:24:09;;;;;;;18.77;16.92;;;33.50;98.00;;;;;;5054300;28;20060;-70
2023/09/09 08:26:34;;;;;;;19.27;17.35;;;33.60;97.40;;;;;;5054396;28;20049;-69
2023/09/09 08:29:00;;;;;;;19.67;17.63;;;33.70;97.20;;;;;;5055223;28;20045;-70
2023/09/09 08:31:26;;;;;;;17.95;15.98;;;33.60;96.90;;;;;;5055388;28;20037;-71
2023/09/09 08:33:51;;;;;;;17.48;15.27;;;33.70;97.00;;;;;;5055548;28;20055;-69
2023/09/09 08:36:17;;;;;;;19.70;15.63;;;34.10;96.80;;;;;;5055101;28;20052;-69
2023/09/09 08:38:43;;;;;;;16.77;15.27;;;34.20;96.40;;;;;;5054427;28;20558;-70
2023/09/09 08:41:22;;;;;;;17.05;15.38;;;34.00;96.20;;;;;;5053872;28;20504;-70
2023/09/09 08:44:25;;;;;;;16.25;14.05;;;33.80;95.70;;;;;;5037686;28;20486;-70
2023/09/09 08:46:52;;;;;;;16.20;14.18;;;33.40;96.00;;;;;;5055453;28;20056;-69
2023/09/09 08:49:22;;;;;;;15.13;13.50;;;33.20;96.80;;;;;;5054615;28;20630;-69
2023/09/09 08:52:12;;;;;;;16.27;14.00;;;33.50;96.60;;;;;;5054276;28;20052;-69
2023/09/09 08:54:38;;;;;;;17.02;13.00;;;33.90;96.10;;;;;;5054042;28;20048;-69
2023/09/09 08:57:04;;;;;;;15.65;14.02;;;34.20;96.50;;;;;;5087403;28;20077;-70
2023/09/09 08:59:32;;;;;;;14.73;13.20;;;34.50;96.20;;;;;;5087424;28;20076;-70
2023/09/09 09:01:58;;;;;;;15.50;13.63;;;34.80;95.90;;;;;;5053986;28;20056;-69
2023/09/09 09:04:27;;;;;;;15.38;13.52;;;34.90;95.70;;;;;;5053203;28;20083;-69
2023/09/09 09:06:54;;;;;;;13.88;12.23;;;35.10;95.40;;;;;;5053956;28;20088;-69
2023/09/09 09:09:20;;;;;;;13.68;11.60;;;35.30;95.30;;;;;;5053145;28;20060;-70
2023/09/09 09:11:46;;;;;;;15.25;13.80;;;35.30;95.10;;;;;;5055042;28;20123;-70
2023/09/09 09:14:11;;;;;;;14.60;13.20;;;35.30;95.00;;;;;;5054376;28;20131;-73
2023/09/09 09:16:41;;;;;;;16.20;13.48;;;35.00;95.10;;;;;;5052777;28;20463;-70
2023/09/09 09:19:16;;;;;;;15.07;13.52;;;34.70;95.00;;;;;;5053273;28;20049;-70
2023/09/09 09:21:43;;;;;;;14.25;12.10;;;34.30;94.90;;;;;;5053556;28;20120;-69
2023/09/09 09:24:09;;;;;;;13.18;11.98;;;33.80;95.70;;;;;;5052883;28;20049;-70
2023/09/09 09:26:35;;;;;;;13.50;12.23;;;33.20;96.10;;;;;;5054277;28;20115;-70
2023/09/09 09:29:06;;;;;;;13.57;12.18;;;33.00;96.50;;;;;;5054442;28;20049;-69
2023/09/09 09:31:32;;;;;;;15.95;14.00;;;32.80;96.60;;;;;;5053544;28;20115;-69
2023/09/09 09:33:59;;;;;;;15.88;13.25;;;32.40;96.70;;;;;;5053496;28;20045;-69
2023/09/09 09:36:26;;;;;;;16.95;15.35;;;31.80;97.20;;;;;;5053952;28;20124;-69
2023/09/09 09:38:53;;;;;;;17.30;15.50;;;31.20;97.60;;;;;;5053135;28;20501;-69
2023/09/09 09:41:19;;;;;;;17.98;16.15;;;30.90;98.10;;;;;;5052623;28;20049;-69
2023/09/09 09:43:49;;;;;;;17.17;15.38;;;30.60;98.60;;;;;;5054048;28;20053;-69
2023/09/09 09:46:15;;;;;;;18.48;16.70;;;30.40;99.00;;;;;;5053315;28;20136;-70
2023/09/09 09:48:41;;;;;;;18.73;16.70;;;30.30;99.10;;;;;;5053001;28;20577;-69
2023/09/09 09:51:07;;;;;;;18.63;16.75;;;30.20;99.30;;;;;;5053429;28;20033;-70
2023/09/09 09:53:48;;;;;;;21.15;17.77;;;30.10;99.80;;;;;;5052570;28;20033;-69
2023/09/09 09:56:15;;;;;;;17.80;16.00;;;29.90;99.90;;;;;;5053646;28;20398;-70
2023/09/09 09:58:45;;;;;;;17.35;15.73;;;29.90;99.90;;;;;;5054037;28;20142;-70
2023/09/09 10:01:11;;;;;;;18.95;16.25;;;30.00;99.90;;;;;;5053398;28;20056;-71
2023/09/09 10:03:45;;;;;;;19.50;16.98;;;30.00;99.90;;;;;;5053003;28;20048;-69
2023/09/09 10:06:13;;;;;;;20.88;18.23;;;30.00;99.90;;;;;;5053149;28;20517;-70
2023/09/09 10:08:46;;;;;;;21.65;18.52;;;29.80;99.90;;;;;;5052602;28;20593;-70
2023/09/09 10:11:15;;;;;;;;;;;29.80;99.90;;;;;;5052681;28;20044;-72
2023/09/09 10:13:49;;;;;;;21.40;19.35;;;29.60;99.90;;;;;;5053694;28;19928;-69
2023/09/09 10:16:17;;;;;;;18.38;16.48;;;29.60;99.90;;;;;;5053266;28;20049;-70
2023/09/09 10:18:44;;;;;;;22.73;17.92;;;29.70;99.90;;;;;;5052391;28;20049;-69
2023/09/09 10:21:12;;;;;;;19.90;17.98;;;29.90;99.90;;;;;;5053109;28;20124;-75
2023/09/09 10:23:40;;;;;;;21.88;18.35;;;30.10;99.90;;;;;;5053579;28;20084;-69
2023/09/09 10:26:07;;;;;;;23.10;20.20;;;30.20;99.90;;;;;;5053344;28;20044;-69
2023/09/09 10:28:34;;;;;;;23.65;21.02;;;30.20;99.90;;;;;;5034388;28;20045;-68
2023/09/09 10:31:00;;;;;;;31.85;19.65;;;30.10;99.90;;;;;;5053416;28;20148;-70
2023/09/09 10:33:28;;;;;;;23.30;20.77;;;29.90;99.90;;;;;;5052762;28;20052;-69
2023/09/09 10:35:56;;;;;;;22.17;19.45;;;29.70;99.90;;;;;;5053295;28;20131;-68
2023/09/09 10:38:23;;;;;;;21.30;18.95;;;29.70;99.90;;;;;;5051613;28;20452;-70
2023/09/09 10:40:50;;;;;;;22.40;19.20;;;29.70;99.90;;;;;;5053290;28;20053;-70
2023/09/09 10:43:15;;;;;;;26.13;21.40;;;29.80;99.90;;;;;;5051391;28;20056;-69
2023/09/09 10:45:43;;;;;;;22.60;19.70;;;29.90;99.90;;;;;;5052500;28;20387;-70
2023/09/09 10:48:12;;;;;;;23.85;19.58;;;30.00;99.90;;;;;;5053186;28;20132;-70
2023/09/09 10:50:52;;;;;;;22.10;19.75;;;30.10;99.90;;;;;;5052429;28;20056;-68
2023/09/09 10:53:31;;;;;;;19.77;17.63;;;30.10;99.90;;;;;;5052681;28;20083;-70
2023/09/09 10:55:59;;;;;;;23.05;19.67;;;30.10;99.90;;;;;;5052851;28;20045;-70
2023/09/09 10:58:33;;;;;;;21.60;19.25;;;30.10;99.90;;;;;;5052452;28;20088;-70
2023/09/09 11:01:02;;;;;;;22.65;20.35;;;30.10;99.90;;;;;;5052634;28;20049;-69
2023/09/09 11:03:37;;;;;;;22.73;19.02;;;30.20;99.90;;;;;;5052377;28;20390;-69
2023/09/09 11:06:18;;;;;;;23.63;19.88;;;30.20;99.90;;;;;;5052659;28;20079;-69
2023/09/09 11:08:49;;;;;;;19.08;16.85;;;30.10;99.60;;;;;;5051613;28;20041;-70
2023/09/09 11:11:18;;;;;;;18.80;16.63;;;29.90;99.90;;;;;;5035011;28;20453;-69
2023/09/09 11:13:53;;;;;;;23.00;17.55;;;29.80;99.90;;;;;;5051742;28;20049;-68
2023/09/09 11:16:39;;;;;;;19.92;17.55;;;29.90;99.90;;;;;;5050726;28;20067;-70
2023/09/09 11:19:13;;;;;;;22.08;18.45;;;29.80;99.90;;;;;;5051441;28;20052;-69
2023/09/09 11:21:44;;;;;;;20.48;16.13;;;29.70;99.90;;;;;;5052076;28;20103;-69
2023/09/09 11:24:11;;;;;;;20.13;18.08;;;29.60;99.90;;;;;;5051466;28;20128;-70
2023/09/09 11:26:38;;;;;;;18.25;15.73;;;29.50;99.90;;;;;;5051957;28;20059;-69
2023/09/09 11:29:05;;;;;;;20.35;18.25;;;29.50;99.90;;;;;;5052565;28;20087;-69
2023/09/09 11:31:31;;;;;;;21.00;17.60;;;29.60;99.90;;;;;;5051743;28;20121;-69
2023/09/09 11:33:59;;;;;;;23.80;18.63;;;29.70;99.90;;;;;;5051106;28;20120;-69
2023/09/09 11:36:27;;;;;;;25.25;18.25;;;29.80;99.90;;;;;;5084189;28;20049;-70
2023/09/09 11:38:56;;;;;;;21.65;18.73;;;29.80;99.90;;;;;;5051101;28;20045;-69
2023/09/09 11:41:24;;;;;;;21.10;18.33;;;29.90;99.90;;;;;;5050725;28;20382;-70
2023/09/09 11:44:03;;;;;;;19.17;16.73;;;29.90;99.90;;;;;;5051996;28;20045;-69
2023/09/09 11:46:38;;;;;;;20.80;18.42;;;30.00;99.90;;;;;;5050308;28;20049;-70
2023/09/09 11:49:05;;;;;;;18.55;16.45;;;30.10;99.90;;;;;;5052364;28;20061;-70
2023/09/09 11:51:31;;;;;;;17.17;15.32;;;30.10;99.90;;;;;;5050673;28;20087;-69
2023/09/09 11:53:59;;;;;;;19.40;16.60;;;30.10;99.80;;;;;;5051261;28;20442;-69
2023/09/09 11:56:25;;;;;;;15.95;13.50;;;30.10;99.60;;;;;;5050727;28;20037;-70
2023/09/09 11:58:51;;;;;;;17.02;14.43;;;30.00;99.60;;;;;;5051105;28;20060;-69
2023/09/09 12:01:19;;;;;;;16.75;13.00;;;29.90;99.60;;;;;;5034312;28;20106;-70
2023/09/09 12:03:45;;;;;;;15.93;12.40;;;29.90;99.40;;;;;;5050501;28;20071;-69
2023/09/09 12:06:12;;;;;;;13.88;11.20;;;30.00;98.90;;;;;;5050939;28;20082;-70
2023/09/09 12:08:39;;;;;;;14.68;12.95;;;29.90;98.70;;;;;;5051672;28;20115;-70
2023/09/09 12:11:07;;;;;;;13.52;10.68;;;29.70;98.40;;;;;;5050640;28;20111;-70
2023/09/09 12:13:35;;;;;;;14.05;11.13;;;29.70;98.60;;;;;;5051600;28;20037;-69
2023/09/09 12:16:02;;;;;;;16.38;11.80;;;29.80;98.50;;;;;;5051859;28;20048;-70
2023/09/09 12:18:28;;;;;;;13.23;11.52;;;29.90;98.40;;;;;;5051360;28;20566;-70
2023/09/09 12:21:10;;;;;;;11.43;10.23;;;30.00;98.20;;;;;;5050661;28;20076;-70
2023/09/09 12:23:38;;;;;;;12.52;9.85;;;30.10;97.90;;;;;;5038609;28;20102;-69
2023/09/09 12:26:14;;;;;;;10.90;9.55;;;30.10;98.10;;;;;;5051867;28;20060;-69
2023/09/09 12:29:05;;;;;;;12.77;9.88;;;30.10;98.00;;;;;;5050592;28;20393;-69